sensor_id;sensor_type;location;lat;lon;timestamp;P1;durP1;ratioP1;P2;durP2;ratioP2
16272;SDS011;8244;50.044;9.006;2023-02-28T00:03:25;4.87;;;1.90;;
16272;SDS011;8244;50.044;9.006;2023-02-28T00:08:27;3.33;;;2.00;;
16272;SDS011;8244;50.044;9.006;2023-02-28T00:13:28;2.63;;;1.87;;
16272;SDS011;8244;50.044;9.006;2023-02-28T00:18:31;3.67;;;1.97;;
16272;SDS011;8244;50.044;9.006;2023-02-28T00:23:34;3.50;;;2.10;;
16272;SDS011;8244;50.044;9.006;2023-02-28T00:28:36;4.27;;;2.37;;
16272;SDS011;8244;50.044;9.006;2023-02-28T00:33:39;6.33;;;2.43;;
16272;SDS011;8244;50.044;9.006;2023-02-28T00:38:40;4.90;;;2.50;;
16272;SDS011;8244;50.044;9.006;2023-02-28T00:43:42;5.00;;;2.60;;
16272;SDS011;8244;50.044;9.006;2023-02-28T00:48:45;3.17;;;2.33;;
16272;SDS011;8244;50.044;9.006;2023-02-28T00:53:47;4.13;;;2.43;;
16272;SDS011;8244;50.044;9.006;2023-02-28T00:58:48;3.73;;;2.77;;
16272;SDS011;8244;50.044;9.006;2023-02-28T01:03:51;4.63;;;2.63;;
16272;SDS011;8244;50.044;9.006;2023-02-28T01:08:53;3.47;;;2.30;;
16272;SDS011;8244;50.044;9.006;2023-02-28T01:13:55;4.67;;;2.77;;
16272;SDS011;8244;50.044;9.006;2023-02-28T01:18:58;5.47;;;2.67;;
16272;SDS011;8244;50.044;9.006;2023-02-28T01:23:59;4.83;;;3.10;;
16272;SDS011;8244;50.044;9.006;2023-02-28T01:29:01;6.47;;;3.10;;
16272;SDS011;8244;50.044;9.006;2023-02-28T01:34:05;4.80;;;2.97;;
16272;SDS011;8244;50.044;9.006;2023-02-28T01:39:06;6.80;;;3.20;;
16272;SDS011;8244;50.044;9.006;2023-02-28T01:49:44;5.03;;;3.13;;
16272;SDS011;8244;50.044;9.006;2023-02-28T01:54:47;5.37;;;3.10;;
16272;SDS011;8244;50.044;9.006;2023-02-28T01:59:52;6.17;;;3.07;;
16272;SDS011;8244;50.044;9.006;2023-02-28T02:05:05;7.87;;;3.43;;
16272;SDS011;8244;50.044;9.006;2023-02-28T02:10:12;6.20;;;3.53;;
16272;SDS011;8244;50.044;9.006;2023-02-28T02:15:18;4.33;;;2.87;;
16272;SDS011;8244;50.044;9.006;2023-02-28T02:26:09;6.23;;;3.27;;
16272;SDS011;8244;50.044;9.006;2023-02-28T02:31:47;5.20;;;3.37;;
16272;SDS011;8244;50.044;9.006;2023-02-28T02:37:07;7.07;;;3.10;;
16272;SDS011;8244;50.044;9.006;2023-02-28T02:42:15;6.00;;;3.17;;
16272;SDS011;8244;50.044;9.006;2023-02-28T02:47:22;7.43;;;3.47;;
16272;SDS011;8244;50.044;9.006;2023-02-28T02:52:32;5.17;;;2.77;;
16272;SDS011;8244;50.044;9.006;2023-02-28T02:57:38;5.07;;;3.07;;
16272;SDS011;8244;50.044;9.006;2023-02-28T03:02:46;5.93;;;2.80;;
16272;SDS011;8244;50.044;9.006;2023-02-28T03:07:51;7.90;;;3.53;;
16272;SDS011;8244;50.044;9.006;2023-02-28T03:12:54;4.80;;;3.00;;
16272;SDS011;8244;50.044;9.006;2023-02-28T03:18:08;5.67;;;3.30;;
16272;SDS011;8244;50.044;9.006;2023-02-28T03:23:19;6.43;;;2.90;;
16272;SDS011;8244;50.044;9.006;2023-02-28T03:28:27;5.13;;;3.37;;
16272;SDS011;8244;50.044;9.006;2023-02-28T03:33:34;5.03;;;3.00;;
16272;SDS011;8244;50.044;9.006;2023-02-28T03:38:42;5.33;;;3.30;;
16272;SDS011;8244;50.044;9.006;2023-02-28T03:43:49;5.87;;;3.20;;
16272;SDS011;8244;50.044;9.006;2023-02-28T03:48:55;5.87;;;3.20;;
16272;SDS011;8244;50.044;9.006;2023-02-28T03:54:05;4.83;;;3.30;;
16272;SDS011;8244;50.044;9.006;2023-02-28T03:59:12;5.37;;;3.00;;
16272;SDS011;8244;50.044;9.006;2023-02-28T04:04:16;7.47;;;3.10;;
16272;SDS011;8244;50.044;9.006;2023-02-28T04:09:19;5.63;;;3.37;;
16272;SDS011;8244;50.044;9.006;2023-02-28T04:14:21;6.17;;;3.23;;
16272;SDS011;8244;50.044;9.006;2023-02-28T04:19:23;6.43;;;3.13;;
16272;SDS011;8244;50.044;9.006;2023-02-28T04:24:26;4.90;;;2.80;;
16272;SDS011;8244;50.044;9.006;2023-02-28T04:29:29;6.30;;;3.30;;
16272;SDS011;8244;50.044;9.006;2023-02-28T04:34:32;6.77;;;3.47;;
16272;SDS011;8244;50.044;9.006;2023-02-28T04:39:36;7.07;;;3.40;;
16272;SDS011;8244;50.044;9.006;2023-02-28T04:44:37;5.27;;;3.20;;
16272;SDS011;8244;50.044;9.006;2023-02-28T04:49:39;6.23;;;3.37;;
16272;SDS011;8244;50.044;9.006;2023-02-28T04:54:42;6.67;;;3.33;;
16272;SDS011;8244;50.044;9.006;2023-02-28T04:59:44;4.83;;;2.87;;
16272;SDS011;8244;50.044;9.006;2023-02-28T05:04:46;5.90;;;3.20;;
16272;SDS011;8244;50.044;9.006;2023-02-28T05:09:49;5.57;;;3.00;;
16272;SDS011;8244;50.044;9.006;2023-02-28T05:14:51;5.27;;;3.10;;
16272;SDS011;8244;50.044;9.006;2023-02-28T05:19:52;5.70;;;3.50;;
16272;SDS011;8244;50.044;9.006;2023-02-28T05:24:55;5.00;;;3.30;;
16272;SDS011;8244;50.044;9.006;2023-02-28T05:29:57;4.90;;;3.37;;
16272;SDS011;8244;50.044;9.006;2023-02-28T05:34:59;5.70;;;3.03;;
16272;SDS011;8244;50.044;9.006;2023-02-28T05:40:02;5.53;;;3.30;;
16272;SDS011;8244;50.044;9.006;2023-02-28T05:45:07;6.53;;;3.40;;
16272;SDS011;8244;50.044;9.006;2023-02-28T05:50:10;4.87;;;3.47;;
16272;SDS011;8244;50.044;9.006;2023-02-28T05:55:13;7.70;;;3.27;;
16272;SDS011;8244;50.044;9.006;2023-02-28T06:00:15;6.80;;;3.43;;
16272;SDS011;8244;50.044;9.006;2023-02-28T06:05:17;7.93;;;3.30;;
16272;SDS011;8244;50.044;9.006;2023-02-28T06:10:20;5.40;;;3.20;;
16272;SDS011;8244;50.044;9.006;2023-02-28T06:15:22;5.60;;;3.13;;
16272;SDS011;8244;50.044;9.006;2023-02-28T06:20:24;4.67;;;2.97;;
16272;SDS011;8244;50.044;9.006;2023-02-28T06:25:30;5.90;;;3.37;;
16272;SDS011;8244;50.044;9.006;2023-02-28T06:30:32;5.77;;;3.20;;
16272;SDS011;8244;50.044;9.006;2023-02-28T06:35:34;6.03;;;3.10;;
16272;SDS011;8244;50.044;9.006;2023-02-28T06:40:37;5.93;;;2.70;;
16272;SDS011;8244;50.044;9.006;2023-02-28T06:45:41;5.33;;;3.20;;
16272;SDS011;8244;50.044;9.006;2023-02-28T06:50:43;5.00;;;3.03;;
16272;SDS011;8244;50.044;9.006;2023-02-28T06:55:46;7.33;;;3.03;;
16272;SDS011;8244;50.044;9.006;2023-02-28T07:00:50;5.83;;;2.80;;
16272;SDS011;8244;50.044;9.006;2023-02-28T07:05:52;7.13;;;3.23;;
16272;SDS011;8244;50.044;9.006;2023-02-28T07:10:57;7.80;;;3.57;;
16272;SDS011;8244;50.044;9.006;2023-02-28T07:16:00;6.27;;;2.90;;
16272;SDS011;8244;50.044;9.006;2023-02-28T07:21:03;9.33;;;2.87;;
16272;SDS011;8244;50.044;9.006;2023-02-28T07:26:10;6.23;;;3.20;;
16272;SDS011;8244;50.044;9.006;2023-02-28T07:31:14;4.47;;;2.63;;
16272;SDS011;8244;50.044;9.006;2023-02-28T07:36:18;6.87;;;3.10;;
16272;SDS011;8244;50.044;9.006;2023-02-28T07:41:21;4.73;;;2.80;;
16272;SDS011;8244;50.044;9.006;2023-02-28T07:46:27;6.13;;;3.20;;
16272;SDS011;8244;50.044;9.006;2023-02-28T07:51:35;5.53;;;3.40;;
16272;SDS011;8244;50.044;9.006;2023-02-28T07:56:38;10.03;;;3.13;;
16272;SDS011;8244;50.044;9.006;2023-02-28T08:01:39;6.43;;;2.90;;
16272;SDS011;8244;50.044;9.006;2023-02-28T08:06:41;5.83;;;2.90;;
16272;SDS011;8244;50.044;9.006;2023-02-28T08:11:44;7.90;;;3.20;;
16272;SDS011;8244;50.044;9.006;2023-02-28T08:16:45;4.20;;;2.80;;
16272;SDS011;8244;50.044;9.006;2023-02-28T08:21:47;5.20;;;3.07;;
16272;SDS011;8244;50.044;9.006;2023-02-28T08:26:50;4.13;;;2.63;;
16272;SDS011;8244;50.044;9.006;2023-02-28T08:31:52;4.80;;;2.70;;
16272;SDS011;8244;50.044;9.006;2023-02-28T08:36:53;3.80;;;2.63;;
16272;SDS011;8244;50.044;9.006;2023-02-28T08:41:57;5.67;;;2.90;;
16272;SDS011;8244;50.044;9.006;2023-02-28T08:46:58;4.45;;;2.70;;
16272;SDS011;8244;50.044;9.006;2023-02-28T08:52:00;6.10;;;2.95;;
16272;SDS011;8244;50.044;9.006;2023-02-28T08:57:03;6.85;;;3.63;;
16272;SDS011;8244;50.044;9.006;2023-02-28T09:02:04;7.45;;;4.05;;
16272;SDS011;8244;50.044;9.006;2023-02-28T09:07:06;6.78;;;3.63;;
16272;SDS011;8244;50.044;9.006;2023-02-28T09:12:09;5.80;;;3.70;;
16272;SDS011;8244;50.044;9.006;2023-02-28T09:17:11;6.80;;;3.63;;
16272;SDS011;8244;50.044;9.006;2023-02-28T09:22:13;7.03;;;3.60;;
16272;SDS011;8244;50.044;9.006;2023-02-28T09:27:16;7.10;;;4.03;;
16272;SDS011;8244;50.044;9.006;2023-02-28T09:32:17;7.43;;;3.67;;
16272;SDS011;8244;50.044;9.006;2023-02-28T09:37:19;6.00;;;3.93;;
16272;SDS011;8244;50.044;9.006;2023-02-28T09:42:23;7.80;;;4.17;;
16272;SDS011;8244;50.044;9.006;2023-02-28T09:47:32;7.73;;;3.93;;
16272;SDS011;8244;50.044;9.006;2023-02-28T09:52:37;6.03;;;3.63;;
16272;SDS011;8244;50.044;9.006;2023-02-28T09:57:40;5.53;;;3.43;;
16272;SDS011;8244;50.044;9.006;2023-02-28T10:02:56;7.80;;;3.50;;
16272;SDS011;8244;50.044;9.006;2023-02-28T10:08:10;8.57;;;3.63;;
16272;SDS011;8244;50.044;9.006;2023-02-28T10:13:19;8.17;;;4.10;;
16272;SDS011;8244;50.044;9.006;2023-02-28T10:18:26;6.20;;;3.73;;
16272;SDS011;8244;50.044;9.006;2023-02-28T10:23:32;7.67;;;4.60;;
16272;SDS011;8244;50.044;9.006;2023-02-28T10:28:37;7.03;;;4.47;;
16272;SDS011;8244;50.044;9.006;2023-02-28T10:33:40;5.70;;;3.80;;
16272;SDS011;8244;50.044;9.006;2023-02-28T10:38:42;6.33;;;3.90;;
16272;SDS011;8244;50.044;9.006;2023-02-28T10:43:45;9.63;;;4.77;;
16272;SDS011;8244;50.044;9.006;2023-02-28T10:48:48;6.60;;;4.00;;
16272;SDS011;8244;50.044;9.006;2023-02-28T10:54:00;8.03;;;4.33;;
16272;SDS011;8244;50.044;9.006;2023-02-28T10:59:20;7.90;;;4.10;;
16272;SDS011;8244;50.044;9.006;2023-02-28T11:04:32;7.43;;;4.30;;
16272;SDS011;8244;50.044;9.006;2023-02-28T11:09:38;8.47;;;4.10;;
16272;SDS011;8244;50.044;9.006;2023-02-28T11:14:46;7.13;;;3.90;;
16272;SDS011;8244;50.044;9.006;2023-02-28T11:19:51;7.17;;;3.83;;
16272;SDS011;8244;50.044;9.006;2023-02-28T11:24:56;6.67;;;3.93;;
16272;SDS011;8244;50.044;9.006;2023-02-28T11:30:02;7.57;;;4.00;;
16272;SDS011;8244;50.044;9.006;2023-02-28T11:35:14;6.37;;;4.00;;
16272;SDS011;8244;50.044;9.006;2023-02-28T11:40:24;6.00;;;3.70;;
16272;SDS011;8244;50.044;9.006;2023-02-28T11:45:45;6.40;;;4.03;;
16272;SDS011;8244;50.044;9.006;2023-02-28T11:51:05;9.57;;;4.47;;
16272;SDS011;8244;50.044;9.006;2023-02-28T11:56:16;6.03;;;4.10;;
16272;SDS011;8244;50.044;9.006;2023-02-28T12:01:28;6.17;;;4.10;;
16272;SDS011;8244;50.044;9.006;2023-02-28T12:06:40;8.57;;;4.60;;
16272;SDS011;8244;50.044;9.006;2023-02-28T12:11:51;9.57;;;4.57;;
16272;SDS011;8244;50.044;9.006;2023-02-28T12:16:59;8.60;;;4.90;;
16272;SDS011;8244;50.044;9.006;2023-02-28T12:22:27;7.35;;;4.57;;
16272;SDS011;8244;50.044;9.006;2023-02-28T12:27:31;8.50;;;4.88;;
16272;SDS011;8244;50.044;9.006;2023-02-28T12:32:39;8.57;;;4.80;;
16272;SDS011;8244;50.044;9.006;2023-02-28T12:37:43;7.57;;;4.68;;
16272;SDS011;8244;50.044;9.006;2023-02-28T12:42:49;10.60;;;5.07;;
16272;SDS011;8244;50.044;9.006;2023-02-28T12:47:56;7.97;;;4.90;;
16272;SDS011;8244;50.044;9.006;2023-02-28T12:53:02;8.35;;;4.80;;
16272;SDS011;8244;50.044;9.006;2023-02-28T12:58:10;9.13;;;4.60;;
16272;SDS011;8244;50.044;9.006;2023-02-28T13:03:29;10.10;;;5.13;;
16272;SDS011;8244;50.044;9.006;2023-02-28T13:08:48;9.63;;;5.30;;
16272;SDS011;8244;50.044;9.006;2023-02-28T13:14:06;6.75;;;4.45;;
16272;SDS011;8244;50.044;9.006;2023-02-28T13:19:22;9.55;;;4.80;;
16272;SDS011;8244;50.044;9.006;2023-02-28T13:24:36;9.23;;;4.45;;
16272;SDS011;8244;50.044;9.006;2023-02-28T13:29:40;9.00;;;5.03;;
16272;SDS011;8244;50.044;9.006;2023-02-28T13:35:11;7.55;;;4.55;;
16272;SDS011;8244;50.044;9.006;2023-02-28T13:40:29;8.82;;;5.07;;
16272;SDS011;8244;50.044;9.006;2023-02-28T13:45:36;7.78;;;4.88;;
16272;SDS011;8244;50.044;9.006;2023-02-28T13:50:41;8.15;;;5.40;;
16272;SDS011;8244;50.044;9.006;2023-02-28T13:55:44;8.55;;;4.97;;
16272;SDS011;8244;50.044;9.006;2023-02-28T14:00:58;9.75;;;5.15;;
16272;SDS011;8244;50.044;9.006;2023-02-28T14:06:17;7.63;;;4.68;;
16272;SDS011;8244;50.044;9.006;2023-02-28T14:11:25;7.95;;;4.82;;
16272;SDS011;8244;50.044;9.006;2023-02-28T14:16:36;9.93;;;4.78;;
16272;SDS011;8244;50.044;9.006;2023-02-28T14:21:46;8.15;;;4.95;;
16272;SDS011;8244;50.044;9.006;2023-02-28T14:32:26;10.35;;;4.90;;
16272;SDS011;8244;50.044;9.006;2023-02-28T14:37:34;8.13;;;5.03;;
16272;SDS011;8244;50.044;9.006;2023-02-28T14:42:46;8.52;;;5.00;;
16272;SDS011;8244;50.044;9.006;2023-02-28T14:47:50;9.15;;;4.85;;
16272;SDS011;8244;50.044;9.006;2023-02-28T14:52:53;7.03;;;4.60;;
16272;SDS011;8244;50.044;9.006;2023-02-28T14:57:57;8.27;;;4.78;;
16272;SDS011;8244;50.044;9.006;2023-02-28T15:03:00;10.68;;;5.03;;
16272;SDS011;8244;50.044;9.006;2023-02-28T15:08:19;9.23;;;4.65;;
16272;SDS011;8244;50.044;9.006;2023-02-28T15:13:21;7.90;;;4.65;;
16272;SDS011;8244;50.044;9.006;2023-02-28T15:18:26;10.27;;;4.70;;
16272;SDS011;8244;50.044;9.006;2023-02-28T15:23:34;8.32;;;4.78;;
16272;SDS011;8244;50.044;9.006;2023-02-28T15:28:37;9.10;;;5.05;;
16272;SDS011;8244;50.044;9.006;2023-02-28T15:33:38;9.40;;;5.45;;
16272;SDS011;8244;50.044;9.006;2023-02-28T15:38:55;10.32;;;5.53;;
16272;SDS011;8244;50.044;9.006;2023-02-28T15:44:16;8.90;;;5.03;;
16272;SDS011;8244;50.044;9.006;2023-02-28T15:49:27;10.05;;;5.70;;
16272;SDS011;8244;50.044;9.006;2023-02-28T15:54:33;8.95;;;5.00;;
16272;SDS011;8244;50.044;9.006;2023-02-28T15:59:36;9.95;;;5.00;;
16272;SDS011;8244;50.044;9.006;2023-02-28T16:04:53;9.75;;;5.28;;
16272;SDS011;8244;50.044;9.006;2023-02-28T16:09:58;8.57;;;4.87;;
16272;SDS011;8244;50.044;9.006;2023-02-28T16:15:00;9.83;;;5.40;;
16272;SDS011;8244;50.044;9.006;2023-02-28T16:20:05;9.15;;;4.82;;
16272;SDS011;8244;50.044;9.006;2023-02-28T16:25:15;9.27;;;5.27;;
16272;SDS011;8244;50.044;9.006;2023-02-28T16:30:19;11.50;;;5.27;;
16272;SDS011;8244;50.044;9.006;2023-02-28T16:35:22;10.20;;;5.37;;
16272;SDS011;8244;50.044;9.006;2023-02-28T16:40:26;9.03;;;4.93;;
16272;SDS011;8244;50.044;9.006;2023-02-28T16:45:29;11.17;;;5.10;;
16272;SDS011;8244;50.044;9.006;2023-02-28T16:50:30;9.87;;;5.40;;
16272;SDS011;8244;50.044;9.006;2023-02-28T16:55:34;8.20;;;4.63;;
16272;SDS011;8244;50.044;9.006;2023-02-28T17:00:36;9.27;;;5.10;;
16272;SDS011;8244;50.044;9.006;2023-02-28T17:05:37;9.63;;;4.73;;
16272;SDS011;8244;50.044;9.006;2023-02-28T17:10:41;9.50;;;4.90;;
16272;SDS011;8244;50.044;9.006;2023-02-28T17:15:46;9.17;;;4.97;;
16272;SDS011;8244;50.044;9.006;2023-02-28T17:20:48;9.77;;;5.40;;
16272;SDS011;8244;50.044;9.006;2023-02-28T17:25:51;9.17;;;4.87;;
16272;SDS011;8244;50.044;9.006;2023-02-28T17:30:54;10.80;;;5.60;;
16272;SDS011;8244;50.044;9.006;2023-02-28T17:35:55;11.83;;;6.67;;
16272;SDS011;8244;50.044;9.006;2023-02-28T17:40:58;16.27;;;8.33;;
16272;SDS011;8244;50.044;9.006;2023-02-28T17:46:00;16.37;;;8.20;;
16272;SDS011;8244;50.044;9.006;2023-02-28T17:51:02;14.77;;;7.87;;
16272;SDS011;8244;50.044;9.006;2023-02-28T17:56:05;12.80;;;7.13;;
16272;SDS011;8244;50.044;9.006;2023-02-28T18:01:11;14.70;;;7.20;;
16272;SDS011;8244;50.044;9.006;2023-02-28T18:06:14;19.60;;;8.80;;
16272;SDS011;8244;50.044;9.006;2023-02-28T18:11:21;16.10;;;8.30;;
16272;SDS011;8244;50.044;9.006;2023-02-28T18:16:24;16.03;;;7.73;;
16272;SDS011;8244;50.044;9.006;2023-02-28T18:21:26;14.07;;;7.70;;
16272;SDS011;8244;50.044;9.006;2023-02-28T18:26:29;11.37;;;6.67;;
16272;SDS011;8244;50.044;9.006;2023-02-28T18:31:31;11.57;;;6.80;;
16272;SDS011;8244;50.044;9.006;2023-02-28T18:36:33;13.57;;;6.73;;
16272;SDS011;8244;50.044;9.006;2023-02-28T18:41:36;13.07;;;7.03;;
16272;SDS011;8244;50.044;9.006;2023-02-28T18:46:38;13.60;;;7.93;;
16272;SDS011;8244;50.044;9.006;2023-02-28T18:51:39;16.63;;;8.80;;
16272;SDS011;8244;50.044;9.006;2023-02-28T18:56:46;15.70;;;8.93;;
16272;SDS011;8244;50.044;9.006;2023-02-28T19:01:49;16.63;;;7.83;;
16272;SDS011;8244;50.044;9.006;2023-02-28T19:06:51;15.03;;;7.67;;
16272;SDS011;8244;50.044;9.006;2023-02-28T19:11:54;17.83;;;7.40;;
16272;SDS011;8244;50.044;9.006;2023-02-28T19:16:56;16.70;;;8.53;;
16272;SDS011;8244;50.044;9.006;2023-02-28T19:21:58;16.57;;;8.63;;
16272;SDS011;8244;50.044;9.006;2023-02-28T19:27:01;17.50;;;8.87;;
16272;SDS011;8244;50.044;9.006;2023-02-28T19:32:02;22.50;;;10.27;;
16272;SDS011;8244;50.044;9.006;2023-02-28T19:37:04;20.17;;;10.37;;
16272;SDS011;8244;50.044;9.006;2023-02-28T19:42:07;22.87;;;11.33;;
16272;SDS011;8244;50.044;9.006;2023-02-28T19:47:09;16.13;;;10.10;;
16272;SDS011;8244;50.044;9.006;2023-02-28T19:52:11;21.43;;;10.10;;
16272;SDS011;8244;50.044;9.006;2023-02-28T19:57:14;19.00;;;10.70;;
16272;SDS011;8244;50.044;9.006;2023-02-28T20:02:17;18.07;;;10.27;;
16272;SDS011;8244;50.044;9.006;2023-02-28T20:07:21;22.37;;;11.40;;
16272;SDS011;8244;50.044;9.006;2023-02-28T20:12:24;30.50;;;12.83;;
16272;SDS011;8244;50.044;9.006;2023-02-28T20:17:27;20.77;;;11.13;;
16272;SDS011;8244;50.044;9.006;2023-02-28T20:22:29;19.40;;;11.07;;
16272;SDS011;8244;50.044;9.006;2023-02-28T20:27:32;16.67;;;9.50;;
16272;SDS011;8244;50.044;9.006;2023-02-28T20:32:34;16.47;;;9.40;;
16272;SDS011;8244;50.044;9.006;2023-02-28T20:37:38;16.37;;;9.90;;
16272;SDS011;8244;50.044;9.006;2023-02-28T20:42:41;16.27;;;9.57;;
16272;SDS011;8244;50.044;9.006;2023-02-28T20:47:42;19.97;;;9.93;;
16272;SDS011;8244;50.044;9.006;2023-02-28T20:52:44;17.33;;;9.30;;
16272;SDS011;8244;50.044;9.006;2023-02-28T20:57:47;17.33;;;9.43;;
16272;SDS011;8244;50.044;9.006;2023-02-28T21:02:49;14.90;;;8.50;;
16272;SDS011;8244;50.044;9.006;2023-02-28T21:07:51;15.37;;;8.90;;
16272;SDS011;8244;50.044;9.006;2023-02-28T21:12:54;15.87;;;8.43;;
16272;SDS011;8244;50.044;9.006;2023-02-28T21:17:56;16.07;;;9.17;;
16272;SDS011;8244;50.044;9.006;2023-02-28T21:22:58;16.73;;;9.23;;
16272;SDS011;8244;50.044;9.006;2023-02-28T21:28:01;16.97;;;9.07;;
16272;SDS011;8244;50.044;9.006;2023-02-28T21:33:03;17.23;;;8.47;;
16272;SDS011;8244;50.044;9.006;2023-02-28T21:38:04;15.57;;;9.20;;
16272;SDS011;8244;50.044;9.006;2023-02-28T21:43:07;17.23;;;8.20;;
16272;SDS011;8244;50.044;9.006;2023-02-28T21:48:09;16.97;;;8.87;;
16272;SDS011;8244;50.044;9.006;2023-02-28T21:53:10;16.20;;;8.57;;
16272;SDS011;8244;50.044;9.006;2023-02-28T21:58:13;19.07;;;8.67;;
16272;SDS011;8244;50.044;9.006;2023-02-28T22:03:15;18.80;;;9.87;;
16272;SDS011;8244;50.044;9.006;2023-02-28T22:08:17;15.90;;;9.00;;
16272;SDS011;8244;50.044;9.006;2023-02-28T22:13:20;15.87;;;8.80;;
16272;SDS011;8244;50.044;9.006;2023-02-28T22:18:21;15.27;;;8.10;;
16272;SDS011;8244;50.044;9.006;2023-02-28T22:23:23;17.37;;;8.67;;
16272;SDS011;8244;50.044;9.006;2023-02-28T22:28:27;16.33;;;8.73;;
16272;SDS011;8244;50.044;9.006;2023-02-28T22:33:30;16.03;;;8.33;;
16272;SDS011;8244;50.044;9.006;2023-02-28T22:38:31;15.77;;;8.93;;
16272;SDS011;8244;50.044;9.006;2023-02-28T22:43:35;17.00;;;9.20;;
16272;SDS011;8244;50.044;9.006;2023-02-28T22:48:38;16.07;;;8.90;;
16272;SDS011;8244;50.044;9.006;2023-02-28T22:53:40;14.77;;;8.60;;
16272;SDS011;8244;50.044;9.006;2023-02-28T22:58:46;15.90;;;8.77;;
16272;SDS011;8244;50.044;9.006;2023-02-28T23:03:48;16.37;;;8.47;;
16272;SDS011;8244;50.044;9.006;2023-02-28T23:08:50;13.50;;;7.90;;
16272;SDS011;8244;50.044;9.006;2023-02-28T23:13:56;18.43;;;9.40;;
16272;SDS011;8244;50.044;9.006;2023-02-28T23:18:58;14.87;;;8.43;;
16272;SDS011;8244;50.044;9.006;2023-02-28T23:24:02;16.50;;;8.60;;
16272;SDS011;8244;50.044;9.006;2023-02-28T23:29:06;17.47;;;8.73;;
16272;SDS011;8244;50.044;9.006;2023-02-28T23:34:08;16.07;;;9.07;;
16272;SDS011;8244;50.044;9.006;2023-02-28T23:39:11;17.87;;;8.70;;
16272;SDS011;8244;50.044;9.006;2023-02-28T23:44:17;16.80;;;9.00;;
16272;SDS011;8244;50.044;9.006;2023-02-28T23:49:19;16.33;;;9.23;;
16272;SDS011;8244;50.044;9.006;2023-02-28T23:54:21;17.13;;;9.20;;
16272;SDS011;8244;50.044;9.006;2023-02-28T23:59:24;15.97;;;9.47;;
